Time;durP1;ratioP1;P1;durP2;ratioP2;P2;SDS_P1;SDS_P2;PMS_P1;PMS_P2;Temp;Humidity;BMP_temperature;BMP_pressure;BME280_temperature;BME280_humidity;BME280_pressure;Samples;Min_cycle;Max_cycle;Signal;HPM_P1;HPM_P2
2021/08/12 00:01:48;;;;;;;28.90;12.55;;;;;;;19.10;71.50;100447.94;5044643;28;20076;-65
2021/08/12 00:04:18;;;;;;;23.30;9.82;;;;;;;19.03;71.67;100431.47;5053415;28;20177;-65
2021/08/12 00:06:47;;;;;;;24.15;10.30;;;;;;;19.05;71.57;100420.66;5052791;28;20072;-65
2021/08/12 00:09:14;;;;;;;29.52;11.48;;;;;;;19.09;71.70;100435.78;5053519;28;20069;-65
2021/08/12 00:11:41;;;;;;;34.05;12.13;;;;;;;19.08;72.15;100451.13;5051202;28;20127;-66
2021/08/12 00:14:08;;;;;;;34.60;10.52;;;;;;;19.07;71.46;100442.94;5053227;28;20461;-66
2021/08/12 00:16:35;;;;;;;29.30;10.82;;;;;;;18.99;72.04;100447.50;5053359;28;20144;-65
2021/08/12 00:19:03;;;;;;;20.80;8.52;;;;;;;19.07;71.92;100449.44;5035533;28;20496;-66
2021/08/12 00:21:30;;;;;;;22.80;9.20;;;;;;;18.83;72.86;100454.88;5052466;28;20075;-66
2021/08/12 00:23:57;;;;;;;23.63;9.60;;;;;;;18.78;73.10;100453.06;5053374;28;20139;-65
2021/08/12 00:26:24;;;;;;;22.90;9.13;;;;;;;18.88;72.24;100447.03;5052123;28;20119;-65
2021/08/12 00:28:51;;;;;;;21.38;9.48;;;;;;;18.78;72.72;100440.94;5044184;28;20450;-65
2021/08/12 00:31:18;;;;;;;18.80;7.50;;;;;;;18.90;72.61;100460.84;5032958;28;20136;-65
2021/08/12 00:33:45;;;;;;;18.45;7.85;;;;;;;18.95;72.33;100457.84;5034656;28;20459;-66
2021/08/12 00:36:11;;;;;;;9.93;5.30;;;;;;;18.94;72.18;100436.38;5052738;28;20049;-65
2021/08/12 00:38:38;;;;;;;16.10;6.68;;;;;;;19.05;71.96;100446.13;5052567;28;20095;-65
2021/08/12 00:41:05;;;;;;;13.50;5.10;;;;;;;19.09;72.17;100451.94;5052577;28;20132;-65
2021/08/12 00:43:32;;;;;;;15.45;7.68;;;;;;;19.00;72.26;100446.31;5023434;28;20168;-65
2021/08/12 00:45:59;;;;;;;17.58;6.15;;;;;;;19.06;72.11;100436.47;5042266;28;20092;-65
2021/08/12 00:48:26;;;;;;;10.75;5.13;;;;;;;19.16;72.04;100443.75;5052578;28;20139;-65
2021/08/12 00:50:53;;;;;;;13.00;5.07;;;;;;;19.16;72.04;100441.72;5052562;28;20512;-65
2021/08/12 00:53:20;;;;;;;12.52;5.38;;;;;;;19.10;72.21;100428.94;5064769;28;20121;-65
2021/08/12 00:55:47;;;;;;;10.50;5.57;;;;;;;19.15;71.50;100428.75;5074711;28;20551;-65
2021/08/12 00:58:18;;;;;;;13.15;5.30;;;;;;;19.26;71.51;100445.34;5092484;28;20586;-65
2021/08/12 01:00:51;;;;;;;9.88;4.28;;;;;;;19.16;72.02;100443.75;5092444;28;20563;-66
2021/08/12 01:03:18;;;;;;;10.75;4.35;;;;;;;18.98;71.85;100434.50;5064053;28;20045;-66
2021/08/12 01:05:48;;;;;;;9.90;4.22;;;;;;;18.93;72.36;100432.69;5052271;28;20118;-66
2021/08/12 01:08:37;;;;;;;14.63;4.30;;;;;;;18.57;72.87;100389.91;5052292;28;20508;-66
2021/08/12 01:11:31;;;;;;;12.10;4.78;;;;;;;18.78;72.74;100430.44;5052025;28;20140;-66
2021/08/12 01:14:26;;;;;;;5.20;2.08;;;;;;;18.74;72.82;100429.47;5035065;28;20118;-66
2021/08/12 01:17:01;;;;;;;10.25;3.83;;;;;;;18.78;72.78;100423.94;5072203;28;20139;-66
2021/08/12 01:19:46;;;;;;;9.50;4.30;;;;;;;18.77;72.98;100444.91;5066479;28;20123;-66
2021/08/12 01:22:17;;;;;;;11.15;3.92;;;;;;;18.82;72.67;100430.59;5052359;28;20099;-66
2021/08/12 01:24:53;;;;;;;8.30;4.07;;;;;;;18.86;72.83;100437.22;5054443;28;20139;-66
2021/08/12 01:27:23;;;;;;;9.00;4.15;;;;;;;18.86;72.92;100434.38;5072167;28;20076;-66
2021/08/12 01:29:58;;;;;;;15.93;4.60;;;;;;;18.85;72.71;100422.25;5072038;28;20420;-66
2021/08/12 01:32:28;;;;;;;9.98;4.28;;;;;;;19.04;72.45;100433.16;5071117;28;20062;-66
2021/08/12 01:35:04;;;;;;;8.48;4.28;;;;;;;18.94;72.26;100405.25;5053061;28;20135;-66
2021/08/12 01:37:39;;;;;;;10.00;4.20;;;;;;;19.05;72.21;100429.16;5057440;28;20124;-66
2021/08/12 01:40:10;;;;;;;12.23;4.88;;;;;;;18.96;73.12;100434.00;5051903;28;20044;-66
2021/08/12 01:42:38;;;;;;;11.10;4.80;;;;;;;18.93;72.71;100440.34;5051010;28;20460;-66
2021/08/12 01:45:06;;;;;;;12.55;5.35;;;;;;;18.89;72.72;100414.75;5058643;28;20080;-66
2021/08/12 01:47:34;;;;;;;11.88;4.20;;;;;;;19.04;72.47;100436.00;5071935;28;20087;-65
2021/08/12 01:50:04;;;;;;;10.10;5.18;;;;;;;19.16;72.73;100444.56;5071613;28;20080;-66
2021/08/12 01:52:34;;;;;;;12.43;5.30;;;;;;;19.29;72.00;100439.03;5062346;28;20503;-66
2021/08/12 01:55:03;;;;;;;13.45;5.22;;;;;;;19.38;72.13;100436.94;5086731;28;20448;-66
2021/08/12 01:57:31;;;;;;;11.65;5.97;;;;;;;19.44;71.87;100423.41;5075830;28;20080;-65
2021/08/12 02:00:01;;;;;;;12.57;5.63;;;;;;;19.60;71.50;100430.97;5075932;28;20453;-66
2021/08/12 02:02:29;;;;;;;19.92;4.75;;;;;;;19.72;71.60;100440.75;5051682;28;20087;-66
2021/08/12 02:04:56;;;;;;;9.48;4.30;;;;;;;19.65;71.48;100439.28;5055489;28;20048;-66
2021/08/12 02:07:23;;;;;;;10.82;4.82;;;;;;;19.66;71.23;100437.31;5055533;28;20096;-66
2021/08/12 02:09:50;;;;;;;10.27;4.55;;;;;;;19.73;71.30;100459.41;5055564;28;20084;-66
2021/08/12 02:12:17;;;;;;;10.98;4.70;;;;;;;19.80;71.32;100448.34;5055669;28;20140;-66
2021/08/12 02:14:44;;;;;;;8.35;4.00;;;;;;;19.83;71.17;100442.00;5074075;28;20124;-66
2021/08/12 02:17:11;;;;;;;7.05;3.72;;;;;;;19.92;70.92;100456.09;5075573;28;20044;-66
2021/08/12 02:19:38;;;;;;;12.45;4.50;;;;;;;19.82;70.83;100434.66;5073500;28;20083;-66
2021/08/12 02:22:14;;;;;;;14.45;3.78;;;;;;;19.62;70.53;100405.97;5075511;28;20204;-66
2021/08/12 02:24:47;;;;;;;11.20;4.07;;;;;;;19.77;70.74;100449.06;5074023;28;20139;-66
2021/08/12 02:27:19;;;;;;;11.27;4.10;;;;;;;19.58;70.98;100424.81;5071520;28;20132;-66
2021/08/12 02:29:48;;;;;;;9.32;4.60;;;;;;;19.72;70.75;100450.06;5055484;28;20076;-66
2021/08/12 02:32:16;;;;;;;10.95;4.20;;;;;;;19.77;71.10;100451.88;5055029;28;20120;-66
2021/08/12 02:34:44;;;;;;;10.50;4.80;;;;;;;19.67;70.93;100433.28;5072223;28;20123;-66
2021/08/12 02:37:13;;;;;;;9.38;4.40;;;;;;;19.79;71.15;100453.16;5062790;28;20127;-66
2021/08/12 02:39:43;;;;;;;35.70;5.95;;;;;;;19.83;70.94;100442.84;5055140;28;20124;-64
2021/08/12 02:42:10;;;;;;;9.95;4.78;;;;;;;19.86;71.02;100439.31;5063373;28;20083;-65
2021/08/12 02:44:41;;;;;;;10.80;4.88;;;;;;;19.85;71.01;100422.63;5073658;28;20500;-65
2021/08/12 02:47:10;;;;;;;35.55;4.95;;;;;;;19.81;70.90;100430.19;5057140;28;20123;-65
2021/08/12 02:49:44;;;;;;;20.20;5.10;;;;;;;19.55;70.80;100425.50;5068886;28;20156;-65
2021/08/12 02:52:14;;;;;;;10.75;3.97;;;;;;;19.50;71.13;100428.53;5054586;28;20132;-65
2021/08/12 02:54:46;;;;;;;11.75;4.43;;;;;;;19.54;71.43;100443.66;5059448;28;20083;-65
2021/08/12 02:57:15;;;;;;;11.07;4.03;;;;;;;19.60;71.46;100449.97;5074655;28;20456;-65
2021/08/12 02:59:43;;;;;;;25.02;3.97;;;;;;;19.58;71.49;100453.13;5074758;28;20131;-65
2021/08/12 03:02:12;;;;;;;12.52;3.65;;;;;;;19.51;71.60;100443.53;5072704;28;20550;-65
2021/08/12 03:04:39;;;;;;;7.68;3.67;;;;;;;19.58;71.52;100458.78;5074701;28;20244;-65
2021/08/12 03:07:08;;;;;;;12.32;3.55;;;;;;;19.59;71.48;100443.47;5072374;28;20051;-65
2021/08/12 03:09:37;;;;;;;6.93;4.03;;;;;;;19.62;71.25;100433.44;5074387;28;20049;-65
2021/08/12 03:12:05;;;;;;;9.68;4.15;;;;;;;19.74;71.42;100449.72;5089865;28;20079;-65
2021/08/12 03:14:32;;;;;;;9.90;4.10;;;;;;;19.78;71.26;100447.88;5074264;28;20048;-65
2021/08/12 03:17:00;;;;;;;11.25;4.05;;;;;;;19.88;71.63;100455.94;5073498;28;20048;-65
2021/08/12 03:19:27;;;;;;;10.98;3.35;;;;;;;19.78;71.27;100460.03;5060458;28;20128;-65
2021/08/12 03:22:04;;;;;;;8.70;3.50;;;;;;;19.73;71.21;100467.91;5054427;28;20124;-65
2021/08/12 03:24:57;;;;;;;15.48;3.55;;;;;;;19.60;71.35;100467.78;5054192;28;20124;-65
2021/08/12 03:27:24;;;;;;;6.47;3.03;;;;;;;19.47;71.43;100468.06;5051923;28;20477;-65
2021/08/12 03:29:52;;;;;;;9.82;3.78;;;;;;;19.42;71.41;100469.91;5059181;28;20123;-65
2021/08/12 03:32:20;;;;;;;7.57;3.25;;;;;;;19.42;71.79;100469.09;5074310;28;20451;-65
2021/08/12 03:34:47;;;;;;;8.35;3.92;;;;;;;19.31;71.65;100456.47;5073648;28;20139;-65
2021/08/12 03:37:15;;;;;;;7.25;3.40;;;;;;;19.40;71.64;100454.44;5066295;28;20083;-65
2021/08/12 03:39:42;;;;;;;7.25;3.40;;;;;;;19.50;71.65;100471.03;5066112;28;20524;-65
2021/08/12 03:42:09;;;;;;;11.52;3.88;;;;;;;19.44;71.71;100472.38;5036071;28;20123;-65
2021/08/12 03:44:36;;;;;;;10.23;3.53;;;;;;;19.35;71.88;100458.31;5053674;28;20133;-65
2021/08/12 03:47:06;;;;;;;9.02;4.32;;;;;;;19.55;71.72;100482.13;5054058;28;20049;-65
2021/08/12 03:49:34;;;;;;;13.13;4.43;;;;;;;19.50;71.94;100479.53;5060165;28;20167;-65
2021/08/12 03:52:01;;;;;;;13.35;4.47;;;;;;;19.41;72.08;100481.56;5077586;28;20040;-65
2021/08/12 03:54:28;;;;;;;13.13;4.68;;;;;;;19.20;72.20;100469.38;5083875;28;20127;-65
2021/08/12 03:56:55;;;;;;;7.75;3.65;;;;;;;19.15;72.38;100479.72;5067421;28;20048;-65
2021/08/12 03:59:22;;;;;;;15.40;3.88;;;;;;;19.09;72.76;100492.38;5073298;28;20091;-65
2021/08/12 04:01:49;;;;;;;15.80;4.05;;;;;;;19.00;72.68;100480.28;5040931;28;20127;-65
2021/08/12 04:04:16;;;;;;;10.77;3.63;;;;;;;18.97;73.04;100488.59;5053422;28;20156;-65
2021/08/12 04:06:43;;;;;;;11.25;3.55;;;;;;;18.95;73.20;100486.13;5055359;28;20507;-65
2021/08/12 04:09:10;;;;;;;7.97;4.15;;;;;;;18.97;73.15;100489.44;5072145;28;20041;-65
2021/08/12 04:11:37;;;;;;;8.65;3.85;;;;;;;19.14;72.78;100492.22;5073212;28;20094;-66
2021/08/12 04:14:04;;;;;;;10.02;3.47;;;;;;;19.16;72.86;100497.53;5071944;28;20086;-66
2021/08/12 04:16:31;;;;;;;8.38;4.07;;;;;;;19.14;72.84;100506.38;5072360;28;20483;-65
2021/08/12 04:18:58;;;;;;;9.35;3.80;;;;;;;19.05;73.06;100497.06;5072678;28;20052;-66
2021/08/12 04:21:25;;;;;;;14.88;5.38;;;;;;;19.05;73.24;100497.06;5073128;28;20132;-66
2021/08/12 04:23:51;;;;;;;10.82;4.13;;;;;;;19.12;72.91;100491.72;5072991;28;20087;-66
2021/08/12 04:26:18;;;;;;;10.07;4.20;;;;;;;19.11;72.88;100477.88;5070866;28;20406;-66
2021/08/12 04:28:47;;;;;;;7.82;3.55;;;;;;;19.07;73.15;100474.91;5055610;28;20044;-66
2021/08/12 04:31:14;;;;;;;6.03;3.72;;;;;;;18.97;73.29;100466.78;5072939;28;20049;-66
2021/08/12 04:33:41;;;;;;;7.30;3.88;;;;;;;18.97;73.44;100486.59;5072289;28;20123;-66
2021/08/12 04:36:08;;;;;;;8.98;3.50;;;;;;;18.91;73.78;100471.84;5060942;28;20127;-65
2021/08/12 04:38:35;;;;;;;6.28;3.95;;;;;;;18.84;73.77;100463.03;5052847;28;20406;-65
2021/08/12 04:41:02;;;;;;;5.25;2.83;;;;;;;18.88;74.15;100475.34;5052909;28;20141;-65
2021/08/12 04:43:30;;;;;;;6.80;3.60;;;;;;;18.85;74.58;100475.19;5059818;28;20447;-65
2021/08/12 04:45:57;;;;;;;7.80;3.65;;;;;;;18.79;74.99;100468.03;5052318;28;20045;-66
2021/08/12 04:48:24;;;;;;;9.30;4.72;;;;;;;18.78;74.65;100474.88;5052917;28;20477;-66
2021/08/12 04:50:51;;;;;;;8.80;4.28;;;;;;;18.77;74.66;100474.06;5034950;28;20415;-66
2021/08/12 04:53:18;;;;;;;8.45;4.07;;;;;;;18.95;74.71;100486.13;5052367;28;20137;-66
2021/08/12 04:55:45;;;;;;;8.48;4.05;;;;;;;19.10;73.87;100494.03;5057978;28;20052;-66
2021/08/12 04:58:12;;;;;;;8.68;3.85;;;;;;;19.24;73.60;100504.31;5054573;28;20053;-65
2021/08/12 05:00:39;;;;;;;10.40;4.72;;;;;;;19.34;73.24;100503.94;5064439;28;20051;-66
2021/08/12 05:03:06;;;;;;;7.28;3.83;;;;;;;19.33;73.12;100490.94;5052313;28;20041;-66
2021/08/12 05:05:35;;;;;;;8.95;3.75;;;;;;;19.47;73.15;100497.19;5052193;28;20126;-66
2021/08/12 05:08:02;;;;;;;7.63;3.88;;;;;;;19.42;73.48;100483.25;5052419;28;20119;-66
2021/08/12 05:10:29;;;;;;;11.52;4.45;;;;;;;19.45;73.19;100498.69;5052176;28;20045;-66
2021/08/12 05:12:56;;;;;;;9.57;4.25;;;;;;;19.41;73.11;100482.38;5052314;28;20141;-66
2021/08/12 05:15:23;;;;;;;9.45;4.65;;;;;;;19.39;73.06;100490.41;5051992;28;20127;-66
2021/08/12 05:17:50;;;;;;;8.18;4.57;;;;;;;19.46;73.01;100494.72;5058939;28;20041;-66
2021/08/12 05:20:17;;;;;;;9.43;4.22;;;;;;;19.53;72.93;100506.34;5052146;28;20041;-66
2021/08/12 05:22:44;;;;;;;11.13;4.93;;;;;;;19.59;73.14;100517.13;5052010;28;20088;-66
2021/08/12 05:25:11;;;;;;;12.43;4.82;;;;;;;19.58;72.74;100495.63;5051948;28;20048;-66
2021/08/12 05:27:38;;;;;;;13.63;5.55;;;;;;;19.57;72.70;100493.16;5057153;28;20123;-66
2021/08/12 05:30:05;;;;;;;9.95;4.85;;;;;;;19.73;72.84;100514.06;5071531;28;20076;-66
2021/08/12 05:32:32;;;;;;;12.30;5.20;;;;;;;19.84;72.59;100535.16;5071997;28;20079;-65
2021/08/12 05:34:59;;;;;;;9.77;4.30;;;;;;;19.91;72.38;100528.13;5068153;28;20119;-65
2021/08/12 05:37:26;;;;;;;10.52;4.72;;;;;;;19.79;72.07;100509.03;5052085;28;20445;-65
2021/08/12 05:39:52;;;;;;;10.90;4.53;;;;;;;19.76;71.91;100509.69;5051933;28;20500;-65
2021/08/12 05:42:19;;;;;;;10.60;4.47;;;;;;;19.90;72.00;100532.97;5064417;28;20049;-65
2021/08/12 05:44:46;;;;;;;8.43;4.55;;;;;;;19.91;72.00;100540.28;5072123;28;20127;-65
2021/08/12 05:47:15;;;;;;;10.07;4.68;;;;;;;19.90;71.54;100535.81;5071865;28;20492;-66
2021/08/12 05:49:42;;;;;;;9.52;4.90;;;;;;;19.91;71.96;100540.28;5086160;28;20044;-66
2021/08/12 05:52:09;;;;;;;11.02;4.38;;;;;;;19.87;71.89;100545.81;5060443;28;20524;-65
2021/08/12 05:54:36;;;;;;;10.25;5.18;;;;;;;19.75;71.78;100522.22;5051674;28;20140;-66
2021/08/12 05:57:03;;;;;;;10.80;4.75;;;;;;;19.85;71.83;100542.47;5051823;28;20132;-66
2021/08/12 05:59:30;;;;;;;13.70;5.15;;;;;;;19.82;71.75;100542.34;5051691;28;20080;-66
2021/08/12 06:01:57;;;;;;;16.80;4.97;;;;;;;19.73;71.91;100539.56;5051724;28;20053;-66
2021/08/12 06:04:24;;;;;;;15.68;5.63;;;;;;;19.76;71.94;100552.19;5051675;28;20049;-66
2021/08/12 06:06:51;;;;;;;9.98;4.60;;;;;;;19.63;72.16;100549.28;5051441;28;20140;-66
2021/08/12 06:09:17;;;;;;;12.35;5.32;;;;;;;19.67;71.91;100565.63;5059037;28;20083;-66
2021/08/12 06:11:44;;;;;;;12.00;5.97;;;;;;;19.65;72.02;100575.25;5051561;28;20056;-66
2021/08/12 06:14:11;;;;;;;11.30;5.82;;;;;;;19.64;72.07;100579.28;5051614;28;20091;-66
2021/08/12 06:16:38;;;;;;;11.88;5.13;;;;;;;19.62;72.18;100578.78;5067936;28;20501;-66
2021/08/12 06:19:05;;;;;;;10.07;4.72;;;;;;;19.33;72.18;100530.59;5071700;28;20044;-66
2021/08/12 06:21:32;;;;;;;21.45;9.25;;;;;;;19.60;71.99;100581.09;5071334;28;20079;-66
2021/08/12 06:23:59;;;;;;;15.05;5.57;;;;;;;19.62;72.41;100592.06;5070846;28;20127;-66
2021/08/12 06:26:26;;;;;;;9.93;4.78;;;;;;;19.45;72.06;100575.16;5070978;28;20048;-66
2021/08/12 06:28:52;;;;;;;11.27;4.97;;;;;;;19.37;72.20;100566.38;5070719;28;20099;-66
2021/08/12 06:31:20;;;;;;;11.60;4.78;;;;;;;19.54;72.27;100598.63;5071692;28;20456;-65
2021/08/12 06:33:47;;;;;;;8.98;4.95;;;;;;;19.54;72.22;100601.47;5070704;28;20045;-66
2021/08/12 06:36:14;;;;;;;10.13;5.18;;;;;;;19.54;72.28;100596.63;5051593;28;20522;-65
2021/08/12 06:38:43;;;;;;;9.85;5.43;;;;;;;19.55;72.36;100609.59;5055105;28;20447;-65
2021/08/12 06:41:10;;;;;;;15.30;5.35;;;;;;;19.52;72.27;100607.47;5072871;28;20076;-65
2021/08/12 06:43:37;;;;;;;12.93;5.05;;;;;;;19.50;72.11;100621.13;5073158;28;20131;-64
2021/08/12 06:46:04;;;;;;;8.98;4.55;;;;;;;19.51;72.04;100622.78;5074841;28;20143;-64
2021/08/12 06:48:31;;;;;;;10.73;5.15;;;;;;;19.52;72.14;100621.66;5074779;28;20087;-64
2021/08/12 06:50:58;;;;;;;9.32;4.57;;;;;;;19.50;72.07;100620.31;5074775;28;20377;-64
2021/08/12 06:53:25;;;;;;;10.20;4.70;;;;;;;19.50;72.25;100631.63;5090499;28;20052;-65
2021/08/12 06:55:52;;;;;;;12.52;5.53;;;;;;;19.19;72.04;100590.28;5094987;28;20099;-64
2021/08/12 06:58:19;;;;;;;8.90;4.72;;;;;;;19.33;72.19;100615.53;5095152;28;20055;-64
2021/08/12 07:00:46;;;;;;;13.40;4.82;;;;;;;19.42;72.14;100639.84;5061686;28;20516;-64
2021/08/12 07:03:14;;;;;;;9.55;4.63;;;;;;;19.33;72.18;100626.88;5054553;28;20394;-64
2021/08/12 07:05:41;;;;;;;10.30;5.03;;;;;;;19.15;72.50;100603.44;5054539;28;20049;-65
2021/08/12 07:08:09;;;;;;;14.02;5.38;;;;;;;19.29;72.61;100640.88;5062267;28;20113;-65
2021/08/12 07:10:35;;;;;;;11.13;4.70;;;;;;;19.06;72.67;100637.41;5074411;28;20072;-65
2021/08/12 07:13:02;;;;;;;10.55;4.88;;;;;;;18.95;72.65;100627.63;5074264;28;20075;-65
2021/08/12 07:15:29;;;;;;;10.90;5.05;;;;;;;19.16;72.66;100650.38;5073191;28;20131;-64
2021/08/12 07:17:56;;;;;;;12.00;4.85;;;;;;;19.14;73.03;100639.41;5056311;28;20044;-65
2021/08/12 07:20:23;;;;;;;11.05;4.50;;;;;;;19.27;72.63;100657.34;5053965;28;20087;-65
2021/08/12 07:22:50;;;;;;;13.10;5.32;;;;;;;19.18;72.66;100637.56;5046216;28;20076;-65
2021/08/12 07:25:21;;;;;;;12.52;5.85;;;;;;;19.36;72.65;100648.84;5074074;28;20481;-65
2021/08/12 07:27:49;;;;;;;10.85;5.07;;;;;;;19.13;72.73;100623.56;5073003;28;20048;-65
2021/08/12 07:30:17;;;;;;;12.27;5.45;;;;;;;19.34;72.63;100659.66;5072893;28;20044;-65
2021/08/12 07:32:44;;;;;;;9.68;4.80;;;;;;;19.36;72.60;100669.50;5072786;28;20072;-65
2021/08/12 07:35:11;;;;;;;8.43;4.30;;;;;;;19.27;72.85;100653.69;5061359;28;20099;-65
2021/08/12 07:37:41;;;;;;;10.95;5.13;;;;;;;19.28;72.37;100658.19;5053074;28;20075;-65
2021/08/12 07:40:08;;;;;;;10.82;5.45;;;;;;;19.24;72.57;100651.53;5053711;28;20139;-66
2021/08/12 07:42:35;;;;;;;7.68;4.40;;;;;;;19.31;72.31;100658.34;5053846;28;20049;-64
2021/08/12 07:45:05;;;;;;;9.57;3.70;;;;;;;19.18;72.32;100636.75;5053763;28;20136;-64
2021/08/12 07:47:32;;;;;;;13.82;5.35;;;;;;;19.24;72.45;100655.19;5052613;28;20132;-64
2021/08/12 07:50:00;;;;;;;4.80;2.65;;;;;;;19.13;72.66;100657.53;5054920;28;20064;-66
2021/08/12 07:52:26;;;;;;;10.50;5.65;;;;;;;19.10;73.03;100666.72;5072966;28;20068;-65
2021/08/12 07:54:53;;;;;;;7.20;4.07;;;;;;;19.11;73.28;100668.41;5073428;28;20090;-64
2021/08/12 07:57:20;;;;;;;10.98;4.93;;;;;;;18.79;73.62;100651.94;5073481;28;20060;-64
2021/08/12 07:59:47;;;;;;;12.60;5.57;;;;;;;18.87;73.83;100671.75;5072595;28;20091;-64
2021/08/12 08:02:15;;;;;;;6.55;3.03;;;;;;;18.73;74.15;100653.25;5073601;28;20468;-64
2021/08/12 08:04:43;;;;;;;8.70;4.03;;;;;;;18.57;74.47;100653.75;5073510;28;20466;-64
2021/08/12 08:07:10;;;;;;;15.00;4.82;;;;;;;18.63;74.98;100669.38;5072666;28;20050;-64
2021/08/12 08:09:37;;;;;;;4.78;1.98;;;;;;;18.51;75.19;100671.19;5072403;28;20068;-64
2021/08/12 08:12:04;;;;;;;9.10;4.38;;;;;;;18.51;75.49;100669.19;5073067;28;20099;-64
2021/08/12 08:14:31;;;;;;;10.45;5.22;;;;;;;18.43;75.22;100653.91;5073416;28;20049;-64
2021/08/12 08:16:58;;;;;;;7.63;4.03;;;;;;;18.64;75.10;100661.72;5054990;28;20098;-64
2021/08/12 08:19:25;;;;;;;11.68;5.82;;;;;;;18.57;75.05;100655.75;5073116;28;20187;-64
2021/08/12 08:21:53;;;;;;;12.18;5.15;;;;;;;18.79;74.66;100654.75;5071788;28;20131;-64
2021/08/12 08:24:20;;;;;;;10.07;4.50;;;;;;;19.04;74.22;100659.59;5068381;28;20099;-64
2021/08/12 08:26:47;;;;;;;10.05;5.03;;;;;;;19.00;74.37;100669.88;5052891;28;20053;-65
2021/08/12 08:29:14;;;;;;;10.82;5.47;;;;;;;19.04;74.68;100673.72;5052921;28;20087;-65
2021/08/12 08:31:42;;;;;;;13.77;5.35;;;;;;;18.98;74.71;100671.41;5051817;28;20072;-66
2021/08/12 08:34:09;;;;;;;12.05;5.47;;;;;;;18.96;74.54;100676.56;5064606;28;20080;-65
2021/08/12 08:36:36;;;;;;;14.93;6.78;;;;;;;18.96;74.77;100674.56;5072924;28;20102;-66
2021/08/12 08:39:03;;;;;;;13.50;6.43;;;;;;;19.05;74.53;100658.41;5064890;28;20540;-66
2021/08/12 08:41:30;;;;;;;10.65;5.60;;;;;;;19.11;74.37;100676.88;5059018;28;20091;-65
2021/08/12 08:44:00;;;;;;;11.27;7.03;;;;;;;18.98;74.58;100679.91;5071978;28;20066;-66
2021/08/12 08:46:27;;;;;;;16.10;7.50;;;;;;;19.21;74.13;100680.50;5072530;28;20090;-66
2021/08/12 08:48:57;;;;;;;14.70;6.60;;;;;;;19.50;73.67;100683.44;5072903;28;20068;-66
2021/08/12 08:51:24;;;;;;;13.50;7.65;;;;;;;19.61;73.22;100686.75;5072307;28;20083;-67
2021/08/12 08:53:52;;;;;;;10.95;7.25;;;;;;;19.72;72.96;100688.06;5071711;28;20124;-66
2021/08/12 08:56:19;;;;;;;14.90;8.32;;;;;;;19.75;72.48;100683.72;5071235;28;20538;-65
2021/08/12 08:58:46;;;;;;;11.50;7.63;;;;;;;19.94;72.48;100689.81;5070327;28;20127;-65
2021/08/12 09:01:13;;;;;;;11.48;7.05;;;;;;;20.08;72.11;100698.09;5072086;28;20071;-65
2021/08/12 09:03:41;;;;;;;12.57;7.35;;;;;;;20.03;72.10;100681.25;5071641;28;20048;-65
2021/08/12 09:06:09;;;;;;;13.40;7.22;;;;;;;20.19;71.66;100692.84;5072401;28;20125;-65
2021/08/12 09:08:36;;;;;;;15.82;8.20;;;;;;;20.11;71.37;100691.75;5072483;28;20044;-65
2021/08/12 09:11:04;;;;;;;12.55;7.55;;;;;;;20.03;71.71;100690.63;5072241;28;20091;-65
2021/08/12 09:13:31;;;;;;;15.68;9.35;;;;;;;20.19;71.40;100692.84;5044064;28;20131;-65
2021/08/12 09:15:57;;;;;;;12.90;6.85;;;;;;;20.39;71.33;100706.25;5060479;28;20091;-65
2021/08/12 09:18:27;;;;;;;15.35;9.57;;;;;;;20.45;70.83;100695.53;5072148;28;20137;-65
2021/08/12 09:21:09;;;;;;;11.60;8.00;;;;;;;20.64;70.78;100692.25;5071893;28;20091;-65
2021/08/12 09:23:36;;;;;;;13.82;8.43;;;;;;;20.98;70.12;100711.84;5070915;28;20095;-65
2021/08/12 09:26:19;;;;;;;14.73;8.30;;;;;;;21.12;69.76;100702.19;5071975;28;20563;-64
2021/08/12 09:28:45;;;;;;;13.68;7.55;;;;;;;20.93;69.37;100683.69;5070738;28;20080;-65
2021/08/12 09:31:12;;;;;;;12.15;7.88;;;;;;;21.03;69.38;100688.09;5071836;28;20076;-65
2021/08/12 09:33:39;;;;;;;12.98;8.63;;;;;;;21.34;69.02;100712.38;5064145;28;20055;-65
2021/08/12 09:36:30;;;;;;;17.63;9.27;;;;;;;21.55;68.68;100706.66;5072167;28;20140;-65
2021/08/12 09:39:19;;;;;;;12.02;7.82;;;;;;;21.68;68.20;100705.50;5059468;28;20489;-64
2021/08/12 09:41:51;;;;;;;13.55;7.75;;;;;;;21.94;67.74;100691.78;5052037;28;20461;-65
2021/08/12 09:44:38;;;;;;;16.05;7.85;;;;;;;22.43;67.19;100716.59;5051944;28;20458;-64
2021/08/12 09:47:18;;;;;;;14.90;8.13;;;;;;;22.76;66.23;100719.25;5071725;28;20135;-65
2021/08/12 09:49:47;;;;;;;;;;;;;;;23.18;67.08;100724.66;5053405;28;20619;-65
2021/08/12 09:52:37;;;;;;;10.93;6.65;;;;;;;23.80;65.01;100734.56;5089667;28;19924;-65
2021/08/12 09:55:04;;;;;;;;;;;;;;;24.27;65.63;100745.16;5091951;28;20083;-65
2021/08/12 09:57:54;;;;;;;9.13;6.32;;;;;;;24.74;63.16;100735.72;5073013;28;19999;-65
2021/08/12 10:00:24;;;;;;;12.00;6.82;;;;;;;25.17;61.75;100742.44;5071754;28;20169;-65
2021/08/12 10:02:52;;;;;;;9.25;6.57;;;;;;;25.52;60.46;100739.47;5071423;28;20098;-65
2021/08/12 10:05:19;;;;;;;10.80;7.40;;;;;;;25.94;59.34;100746.41;5071648;28;20542;-65
2021/08/12 10:07:49;;;;;;;16.02;7.50;;;;;;;26.41;58.23;100750.91;5069600;28;20091;-65
2021/08/12 10:10:20;;;;;;;13.43;7.57;;;;;;;26.81;57.27;100753.22;5071615;28;20432;-65
2021/08/12 10:12:50;;;;;;;14.55;7.97;;;;;;;26.94;56.75;100750.97;5053763;28;20127;-64
2021/08/12 10:15:27;;;;;;;8.93;6.28;;;;;;;27.33;56.47;100753.56;5070939;28;20458;-65
2021/08/12 10:17:56;;;;;;;15.73;6.63;;;;;;;27.90;54.84;100748.50;5075437;28;20087;-65
2021/08/12 10:20:27;;;;;;;10.50;6.30;;;;;;;28.27;53.94;100754.19;5072006;28;20166;-65
2021/08/12 10:22:56;;;;;;;10.70;5.80;;;;;;;28.99;52.44;100754.72;5069311;28;20476;-65
2021/08/12 10:25:25;;;;;;;13.80;6.82;;;;;;;29.43;50.75;100745.91;5055568;28;20548;-63
2021/08/12 10:27:58;;;;;;;9.15;6.38;;;;;;;29.78;50.79;100750.19;5055296;28;20088;-64
2021/08/12 10:30:26;;;;;;;12.13;7.97;;;;;;;30.03;48.67;100758.88;5055590;28;20084;-65
2021/08/12 10:32:55;;;;;;;15.48;7.88;;;;;;;30.09;48.52;100759.31;5065658;28;20076;-65
2021/08/12 10:35:23;;;;;;;12.82;7.35;;;;;;;30.22;48.35;100751.91;5068198;28;20080;-65
2021/08/12 10:37:54;;;;;;;13.52;8.57;;;;;;;30.35;48.02;100770.44;5075042;28;20660;-65
2021/08/12 10:40:26;;;;;;;13.35;7.90;;;;;;;30.38;46.85;100755.22;5070429;28;20081;-66
2021/08/12 10:42:54;;;;;;;11.38;7.10;;;;;;;30.69;47.01;100758.50;5055237;28;20141;-65
2021/08/12 10:45:23;;;;;;;11.38;6.80;;;;;;;31.17;46.44;100755.13;5054991;28;20080;-64
2021/08/12 10:47:54;;;;;;;10.93;6.95;;;;;;;31.69;45.23;100763.97;5074617;28;20072;-64
2021/08/12 10:50:26;;;;;;;12.50;6.43;;;;;;;32.09;44.96;100765.41;5074557;28;20131;-65
2021/08/12 10:53:02;;;;;;;13.63;6.75;;;;;;;32.41;44.85;100767.25;5073639;28;20087;-64
2021/08/12 10:55:28;;;;;;;10.65;6.63;;;;;;;32.73;43.44;100778.56;5074649;28;20053;-64
2021/08/12 10:58:29;;;;;;;9.88;6.55;;;;;;;32.87;43.83;100777.59;5065503;28;20262;-64
2021/08/12 11:00:56;;;;;;;10.85;6.65;;;;;;;33.02;42.81;100778.28;5042166;28;20455;-64
2021/08/12 11:03:35;;;;;;;11.65;6.78;;;;;;;33.30;42.37;100770.53;5071356;28;20044;-65
2021/08/12 11:06:15;;;;;;;9.93;6.18;;;;;;;33.60;41.36;100775.56;5074426;28;20080;-65
2021/08/12 11:11:20;;;;;;;9.57;6.18;;;;;;;33.68;40.63;100788.72;5073873;28;20044;-65
2021/08/12 11:13:49;;;;;;;10.50;6.38;;;;;;;33.50;40.16;100754.16;5073250;28;20106;-66
2021/08/12 11:16:17;;;;;;;12.02;6.72;;;;;;;33.67;39.89;100782.06;5054661;28;20240;-65
2021/08/12 11:18:52;;;;;;;16.77;6.60;;;;;;;33.61;39.89;100789.63;5074213;28;20088;-65
2021/08/12 11:21:41;;;;;;;12.15;7.57;;;;;;;33.81;39.15;100794.72;5073986;28;20080;-65
2021/08/12 11:24:10;;;;;;;11.25;7.25;;;;;;;33.73;39.40;100797.72;5072843;28;20091;-65
2021/08/12 11:26:44;;;;;;;12.57;7.72;;;;;;;33.76;39.14;100783.63;5073492;28;20056;-65
2021/08/12 11:29:34;;;;;;;12.50;8.63;;;;;;;33.63;38.93;100784.19;5073646;28;20485;-65
2021/08/12 11:32:03;;;;;;;12.63;6.97;;;;;;;33.62;38.86;100799.13;5069662;28;20484;-65